(°C)
11°
13°
15°
(°C)
11°
S
S
S
S
S
S
S
(km/h)
11-19
12-21
13-25
13-25
14-22
15-25
18-30
(mm)
0
0
0
0
0
0
0
(%)
0
0
0
0
0
0
0

Élévation du soleil

/ -11°
sun-icon
UV 5
04:22
21:19
Dernier croissant (338°)
03:39
19:03

METAR pour 55.31°N 61.5°E (USCC)

Heure Conditions Température/
Point de rosée
Vent Visibilité Météo Nuages Pression Changement Brut
VFR 7°C / 3°C 260º 2kt >10km - Clouds and Visibility OK 1009 No Significant change USCC 272100Z 26001MPS CAVOK 07/03 Q1009 R09/000060 NOSIG RMK QFE736
VFR 9°C / 3°C 200º 4kt >10km - Clouds and Visibility OK 1009 No Significant change USCC 272030Z 20002MPS CAVOK 09/03 Q1009 R09/000060 NOSIG RMK QFE736
VFR 10°C / 3°C 240º 4kt >10km - Clouds and Visibility OK 1009 No Significant change USCC 272000Z 24002MPS CAVOK 10/03 Q1009 R09/000060 NOSIG RMK QFE736
VFR 9°C / 3°C 230º 4kt >10km - Clouds and Visibility OK 1009 No Significant change USCC 271930Z 23002MPS CAVOK 09/03 Q1009 R09/000060 NOSIG RMK QFE736
VFR 10°C / 3°C 210º 2kt >10km - Clouds and Visibility OK 1009 No Significant change USCC 271900Z 21001MPS CAVOK 10/03 Q1009 R09/000060 NOSIG RMK QFE736
VFR 9°C / 3°C 110º variable 070º to 160º 4kt >10km - Clouds and Visibility OK 1009 No Significant change USCC 271830Z 11002MPS 070V160 CAVOK 09/03 Q1009 R09/000060 NOSIG RMK QFE736
VFR 10°C / 3°C 340º 2kt >10km - Clouds and Visibility OK 1009 No Significant change USCC 271800Z 34001MPS CAVOK 10/03 Q1009 R09/000060 NOSIG RMK QFE736
VFR 13°C / 4°C 170º 4kt >10km - Clouds and Visibility OK 1009 No Significant change USCC 271730Z 17002MPS CAVOK 13/04 Q1009 R09/000060 NOSIG RMK QFE736
VFR 15°C / 3°C 190º 4kt >10km - Clouds and Visibility OK 1009 No Significant change USCC 271700Z 19002MPS CAVOK 15/03 Q1009 R09/000060 NOSIG RMK QFE736
VFR 15°C / 3°C 160º 6kt >10km - Clouds and Visibility OK 1009 No Significant change USCC 271630Z 16003MPS CAVOK 15/03 Q1009 R09/000060 NOSIG RMK QFE736
VFR 16°C / 3°C 160º 4kt >10km - Clouds and Visibility OK 1009 No Significant change USCC 271600Z 16002MPS CAVOK 16/03 Q1009 R27/000060 NOSIG RMK QFE737
VFR 18°C / 2°C 200º 4kt >10km - Clouds and Visibility OK 1009 No Significant change USCC 271530Z 20002MPS CAVOK 18/02 Q1009 R27/000060 NOSIG RMK QFE737
VFR 19°C / 2°C 210º 4kt >10km - Clouds and Visibility OK 1009 No Significant change USCC 271500Z 21002MPS CAVOK 19/02 Q1009 R27/000060 NOSIG RMK QFE737
VFR 19°C / 1°C 220º 10kt >10km - Clouds and Visibility OK 1009 No Significant change USCC 271430Z 22005MPS CAVOK 19/01 Q1009 R27/000060 NOSIG RMK QFE737
VFR 20°C / 1°C 220º 10kt >10km - Clouds and Visibility OK 1009 No Significant change USCC 271400Z 22005MPS CAVOK 20/01 Q1009 R27/000060 NOSIG RMK QFE737
VFR 20°C / 0°C 240º 8kt >10km - Clouds and Visibility OK 1009 No Significant change USCC 271330Z 24004MPS CAVOK 20/00 Q1009 R27/000060 NOSIG RMK QFE737
VFR 20°C / 1°C 250º variable 210º to 290º 8kt Gust 17kt >10km - Clouds and Visibility OK 1009 No Significant change USCC 271300Z 25004G09MPS 210V290 CAVOK 20/01 Q1009 R27/000060 NOSIG RMK QFE737
VFR 20°C / 2°C 220º 6kt >10km - Clouds and Visibility OK 1009 No Significant change USCC 271230Z 22003MPS CAVOK 20/02 Q1009 R27/000060 NOSIG RMK QFE737
VFR 20°C / 1°C 250º 10kt >10km - Few Clouds 4000ft 1010 No Significant change USCC 271200Z 25005MPS 9999 FEW040 20/01 Q1010 R27/000060 NOSIG RMK QFE737
VFR 20°C / 2°C 270º variable 230º to 300º 8kt >10km - Few Clouds 4000ft 1010 No Significant change USCC 271130Z 27004MPS 230V300 9999 FEW040 20/02 Q1010 R27/000060 NOSIG RMK QFE737
VFR 20°C / 1°C 270º variable 240º to 320º 8kt >10km - Few Clouds 4000ft 1010 No Significant change USCC 271100Z 27004MPS 240V320 9999 FEW040 20/01 Q1010 R27/000060 NOSIG RMK QFE737
VFR 19°C / 1°C 260º variable 220º to 330º 10kt Gust 19kt >10km - Scattered Clouds 4000ft 1010 No Significant change USCC 271030Z 26005G10MPS 220V330 9999 SCT040 19/01 Q1010 R27/000060 NOSIG RMK QFE737
VFR 18°C / 1°C 280º variable 240º to 320º 10kt >10km - Scattered Clouds 4000ft 1010 No Significant change USCC 271000Z 28005MPS 240V320 9999 SCT040 18/01 Q1010 R27/000060 NOSIG RMK QFE737
VFR 18°C / 2°C 280º 12kt >10km - Scattered Clouds 4000ft 1010 No Significant change USCC 270930Z 28006MPS 9999 SCT040 18/02 Q1010 R27/000060 NOSIG RMK QFE738

VFR

7°C / 3°C

[Plus]
Vent 260º 2kt
Visibilité >10km
Météo -
Nuages Clouds and Visibility OK
Pression 1009
Changement No Significant change
Brut USCC 272100Z 26001MPS CAVOK 07/03 Q1009 R09/000060 NOSIG RMK QFE736

VFR

9°C / 3°C

[Plus]
Vent 200º 4kt
Visibilité >10km
Météo -
Nuages Clouds and Visibility OK
Pression 1009
Changement No Significant change
Brut USCC 272030Z 20002MPS CAVOK 09/03 Q1009 R09/000060 NOSIG RMK QFE736

VFR

10°C / 3°C

[Plus]
Vent 240º 4kt
Visibilité >10km
Météo -
Nuages Clouds and Visibility OK
Pression 1009
Changement No Significant change
Brut USCC 272000Z 24002MPS CAVOK 10/03 Q1009 R09/000060 NOSIG RMK QFE736

VFR

9°C / 3°C

[Plus]
Vent 230º 4kt
Visibilité >10km
Météo -
Nuages Clouds and Visibility OK
Pression 1009
Changement No Significant change
Brut USCC 271930Z 23002MPS CAVOK 09/03 Q1009 R09/000060 NOSIG RMK QFE736

VFR

10°C / 3°C

[Plus]
Vent 210º 2kt
Visibilité >10km
Météo -
Nuages Clouds and Visibility OK
Pression 1009
Changement No Significant change
Brut USCC 271900Z 21001MPS CAVOK 10/03 Q1009 R09/000060 NOSIG RMK QFE736

VFR

9°C / 3°C

[Plus]
Vent 110º variable 070º to 160º 4kt
Visibilité >10km
Météo -
Nuages Clouds and Visibility OK
Pression 1009
Changement No Significant change
Brut USCC 271830Z 11002MPS 070V160 CAVOK 09/03 Q1009 R09/000060 NOSIG RMK QFE736

VFR

10°C / 3°C

[Plus]
Vent 340º 2kt
Visibilité >10km
Météo -
Nuages Clouds and Visibility OK
Pression 1009
Changement No Significant change
Brut USCC 271800Z 34001MPS CAVOK 10/03 Q1009 R09/000060 NOSIG RMK QFE736

VFR

13°C / 4°C

[Plus]
Vent 170º 4kt
Visibilité >10km
Météo -
Nuages Clouds and Visibility OK
Pression 1009
Changement No Significant change
Brut USCC 271730Z 17002MPS CAVOK 13/04 Q1009 R09/000060 NOSIG RMK QFE736

VFR

15°C / 3°C

[Plus]
Vent 190º 4kt
Visibilité >10km
Météo -
Nuages Clouds and Visibility OK
Pression 1009
Changement No Significant change
Brut USCC 271700Z 19002MPS CAVOK 15/03 Q1009 R09/000060 NOSIG RMK QFE736

VFR

15°C / 3°C

[Plus]
Vent 160º 6kt
Visibilité >10km
Météo -
Nuages Clouds and Visibility OK
Pression 1009
Changement No Significant change
Brut USCC 271630Z 16003MPS CAVOK 15/03 Q1009 R09/000060 NOSIG RMK QFE736

VFR

16°C / 3°C

[Plus]
Vent 160º 4kt
Visibilité >10km
Météo -
Nuages Clouds and Visibility OK
Pression 1009
Changement No Significant change
Brut USCC 271600Z 16002MPS CAVOK 16/03 Q1009 R27/000060 NOSIG RMK QFE737

VFR

18°C / 2°C

[Plus]
Vent 200º 4kt
Visibilité >10km
Météo -
Nuages Clouds and Visibility OK
Pression 1009
Changement No Significant change
Brut USCC 271530Z 20002MPS CAVOK 18/02 Q1009 R27/000060 NOSIG RMK QFE737

VFR

19°C / 2°C

[Plus]
Vent 210º 4kt
Visibilité >10km
Météo -
Nuages Clouds and Visibility OK
Pression 1009
Changement No Significant change
Brut USCC 271500Z 21002MPS CAVOK 19/02 Q1009 R27/000060 NOSIG RMK QFE737

VFR

19°C / 1°C

[Plus]
Vent 220º 10kt
Visibilité >10km
Météo -
Nuages Clouds and Visibility OK
Pression 1009
Changement No Significant change
Brut USCC 271430Z 22005MPS CAVOK 19/01 Q1009 R27/000060 NOSIG RMK QFE737

VFR

20°C / 1°C

[Plus]
Vent 220º 10kt
Visibilité >10km
Météo -
Nuages Clouds and Visibility OK
Pression 1009
Changement No Significant change
Brut USCC 271400Z 22005MPS CAVOK 20/01 Q1009 R27/000060 NOSIG RMK QFE737

VFR

20°C / 0°C

[Plus]
Vent 240º 8kt
Visibilité >10km
Météo -
Nuages Clouds and Visibility OK
Pression 1009
Changement No Significant change
Brut USCC 271330Z 24004MPS CAVOK 20/00 Q1009 R27/000060 NOSIG RMK QFE737

VFR

20°C / 1°C

[Plus]
Vent 250º variable 210º to 290º 8kt Gust 17kt
Visibilité >10km
Météo -
Nuages Clouds and Visibility OK
Pression 1009
Changement No Significant change
Brut USCC 271300Z 25004G09MPS 210V290 CAVOK 20/01 Q1009 R27/000060 NOSIG RMK QFE737

VFR

20°C / 2°C

[Plus]
Vent 220º 6kt
Visibilité >10km
Météo -
Nuages Clouds and Visibility OK
Pression 1009
Changement No Significant change
Brut USCC 271230Z 22003MPS CAVOK 20/02 Q1009 R27/000060 NOSIG RMK QFE737

VFR

20°C / 1°C

[Plus]
Vent 250º 10kt
Visibilité >10km
Météo -
Nuages Few Clouds 4000ft
Pression 1010
Changement No Significant change
Brut USCC 271200Z 25005MPS 9999 FEW040 20/01 Q1010 R27/000060 NOSIG RMK QFE737

VFR

20°C / 2°C

[Plus]
Vent 270º variable 230º to 300º 8kt
Visibilité >10km
Météo -
Nuages Few Clouds 4000ft
Pression 1010
Changement No Significant change
Brut USCC 271130Z 27004MPS 230V300 9999 FEW040 20/02 Q1010 R27/000060 NOSIG RMK QFE737

VFR

20°C / 1°C

[Plus]
Vent 270º variable 240º to 320º 8kt
Visibilité >10km
Météo -
Nuages Few Clouds 4000ft
Pression 1010
Changement No Significant change
Brut USCC 271100Z 27004MPS 240V320 9999 FEW040 20/01 Q1010 R27/000060 NOSIG RMK QFE737

VFR

19°C / 1°C

[Plus]
Vent 260º variable 220º to 330º 10kt Gust 19kt
Visibilité >10km
Météo -
Nuages Scattered Clouds 4000ft
Pression 1010
Changement No Significant change
Brut USCC 271030Z 26005G10MPS 220V330 9999 SCT040 19/01 Q1010 R27/000060 NOSIG RMK QFE737

VFR

18°C / 1°C

[Plus]
Vent 280º variable 240º to 320º 10kt
Visibilité >10km
Météo -
Nuages Scattered Clouds 4000ft
Pression 1010
Changement No Significant change
Brut USCC 271000Z 28005MPS 240V320 9999 SCT040 18/01 Q1010 R27/000060 NOSIG RMK QFE737

VFR

18°C / 2°C

[Plus]
Vent 280º 12kt
Visibilité >10km
Météo -
Nuages Scattered Clouds 4000ft
Pression 1010
Changement No Significant change
Brut USCC 270930Z 28006MPS 9999 SCT040 18/02 Q1010 R27/000060 NOSIG RMK QFE738

TAF pour 55.31°N 61.5°E (USCC)

From till


From till Wind 200º 6kt. Gust 19kt. Visibility 10km or more. Broken Clouds 2000ft.
Temporarly from till Wind 220º 16kt. Gust 35kt. Light Thunderstorm Rain . Broken Clouds 1600ft.

Brut: TAF USCC 271958Z 2721/2821 20003G10MPS 9999 BKN020CB TEMPO 2800/2815 22008G18MPS -TSRA BKN016CB

Radar et prévision de précipitation à court terme pour 55.31°N 61.5°E

Bruine
Légère
Modéré
Fort
Très fort
Grêle

Le marqueur est placé sur 55.31°N 61.5°E. Cette animation montre le Radar des précipitations pour les dernières heures, ainsi qu'une 1h prévision. La bruine ou les légères chutes de neiges peuvent ne pas être détectées par le radar. L'intensité des précipitations est visible avec un code couleur allant du bleu clair au violet foncé et orange.

Les images satellites et les pluies actuelles pour 55.31°N 61.5°E

Le marqueur est placé sur 55.31°N 61.5°E. [Plus]

L'image satellite en temps réel combine la lumière visible pendant la journée et le rayonnement infrarouge pendant la nuit. La nuit, l'image n'est pas sombre car le rayonnement infrarouge permet de détecter les différences de température. Malheureusement, les nuages bas et le brouillard sont difficiles à distinguer des températures au sol et peuvent donc être presque invisibles pendant la nuit. Les images des satellites Météosat pour l'Europe sont mises à jour en temps réel toutes les 5 minutes. Les images GOES-16/GOES-17 (Amérique du Nord et du Sud) et Himawari (Asie) sont mises à jour toutes les 10 minutes.

Copyright 2022 EUMETSAT / meteoblue. / Copyright 2022 meteoblue

Retour vers le haut